sensor_id;sensor_type;location;lat;lon;timestamp;pressure;altitude;pressure_sealevel;temperature;humidity
34983;BME280;21187;50.976;13.720;2023-02-03T00:02:10;98884.19;;;5.40;60.19
34983;BME280;21187;50.976;13.720;2023-02-03T00:07:12;98881.97;;;5.42;60.04
34983;BME280;21187;50.976;13.720;2023-02-03T00:12:41;98880.69;;;5.40;60.17
34983;BME280;21187;50.976;13.720;2023-02-03T00:17:43;98876.13;;;5.40;59.89
34983;BME280;21187;50.976;13.720;2023-02-03T00:22:45;98873.34;;;5.45;60.18
34983;BME280;21187;50.976;13.720;2023-02-03T00:27:47;98870.66;;;5.45;60.13
34983;BME280;21187;50.976;13.720;2023-02-03T00:32:49;98875.13;;;5.50;59.86
34983;BME280;21187;50.976;13.720;2023-02-03T00:37:52;98862.19;;;5.52;59.81
34983;BME280;21187;50.976;13.720;2023-02-03T00:42:55;98852.84;;;5.49;59.71
34983;BME280;21187;50.976;13.720;2023-02-03T00:47:57;98842.81;;;5.41;60.09
34983;BME280;21187;50.976;13.720;2023-02-03T00:52:59;98833.75;;;5.37;60.07
34983;BME280;21187;50.976;13.720;2023-02-03T00:58:01;98832.16;;;5.36;59.83
34983;BME280;21187;50.976;13.720;2023-02-03T01:03:04;98822.38;;;5.26;60.08
34983;BME280;21187;50.976;13.720;2023-02-03T01:08:06;98810.56;;;5.13;60.39
34983;BME280;21187;50.976;13.720;2023-02-03T01:13:08;98796.72;;;5.06;60.58
34983;BME280;21187;50.976;13.720;2023-02-03T01:18:10;98791.53;;;4.96;61.23
34983;BME280;21187;50.976;13.720;2023-02-03T01:23:12;98771.28;;;4.90;61.24
34983;BME280;21187;50.976;13.720;2023-02-03T01:28:14;98761.13;;;4.87;61.56
34983;BME280;21187;50.976;13.720;2023-02-03T01:33:16;98744.72;;;4.74;61.23
34983;BME280;21187;50.976;13.720;2023-02-03T01:38:18;98730.31;;;4.70;62.02
34983;BME280;21187;50.976;13.720;2023-02-03T01:43:30;98715.59;;;4.81;61.18
34983;BME280;21187;50.976;13.720;2023-02-03T01:48:33;98705.84;;;4.86;60.97
34983;BME280;21187;50.976;13.720;2023-02-03T01:53:36;98705.66;;;4.82;61.56
34983;BME280;21187;50.976;13.720;2023-02-03T01:58:41;98704.28;;;4.85;61.74
34983;BME280;21187;50.976;13.720;2023-02-03T02:03:51;98689.75;;;4.99;60.87
34983;BME280;21187;50.976;13.720;2023-02-03T02:08:55;98668.28;;;4.99;61.16
34983;BME280;21187;50.976;13.720;2023-02-03T02:14:00;98656.75;;;4.99;61.41
34983;BME280;21187;50.976;13.720;2023-02-03T02:36:59;98616.53;;;5.22;61.84
34983;BME280;21187;50.976;13.720;2023-02-03T02:47:18;98575.28;;;5.40;62.15
34983;BME280;21187;50.976;13.720;2023-02-03T02:52:22;98580.22;;;5.47;62.48
34983;BME280;21187;50.976;13.720;2023-02-03T02:57:27;98574.44;;;5.54;62.63
34983;BME280;21187;50.976;13.720;2023-02-03T03:02:32;98564.84;;;5.61;62.58
34983;BME280;21187;50.976;13.720;2023-02-03T03:07:54;98542.13;;;5.68;62.89
34983;BME280;21187;50.976;13.720;2023-02-03T03:13:05;98523.34;;;5.76;63.29
34983;BME280;21187;50.976;13.720;2023-02-03T03:18:13;98521.03;;;5.92;62.84
34983;BME280;21187;50.976;13.720;2023-02-03T03:23:29;98525.25;;;6.07;63.30
34983;BME280;21187;50.976;13.720;2023-02-03T03:34:03;98511.56;;;6.35;64.06
34983;BME280;21187;50.976;13.720;2023-02-03T03:39:21;98500.06;;;6.52;63.84
34983;BME280;21187;50.976;13.720;2023-02-03T03:44:28;98499.28;;;6.69;63.76
34983;BME280;21187;50.976;13.720;2023-02-03T03:49:32;98491.84;;;6.83;64.39
34983;BME280;21187;50.976;13.720;2023-02-03T03:54:36;98503.88;;;7.04;64.57
34983;BME280;21187;50.976;13.720;2023-02-03T03:59:40;98513.84;;;7.21;64.48
34983;BME280;21187;50.976;13.720;2023-02-03T04:04:45;98478.31;;;7.36;64.80
34983;BME280;21187;50.976;13.720;2023-02-03T04:09:48;98474.81;;;7.44;64.58
34983;BME280;21187;50.976;13.720;2023-02-03T04:14:50;98448.16;;;7.52;65.03
34983;BME280;21187;50.976;13.720;2023-02-03T04:19:52;98437.69;;;7.59;64.78
34983;BME280;21187;50.976;13.720;2023-02-03T04:24:54;98432.09;;;7.64;64.78
34983;BME280;21187;50.976;13.720;2023-02-03T04:29:59;98443.03;;;7.68;64.93
34983;BME280;21187;50.976;13.720;2023-02-03T04:35:02;98432.06;;;7.73;64.96
34983;BME280;21187;50.976;13.720;2023-02-03T04:40:05;98426.03;;;7.76;64.69
34983;BME280;21187;50.976;13.720;2023-02-03T04:45:09;98430.91;;;7.82;64.64
34983;BME280;21187;50.976;13.720;2023-02-03T04:50:11;98429.47;;;7.85;64.34
34983;BME280;21187;50.976;13.720;2023-02-03T04:55:13;98426.00;;;7.85;64.45
34983;BME280;21187;50.976;13.720;2023-02-03T05:00:15;98432.97;;;7.86;64.70
34983;BME280;21187;50.976;13.720;2023-02-03T05:05:17;98425.81;;;7.90;64.32
34983;BME280;21187;50.976;13.720;2023-02-03T05:10:19;98435.94;;;7.93;64.27
34983;BME280;21187;50.976;13.720;2023-02-03T05:15:21;98424.50;;;7.96;64.47
34983;BME280;21187;50.976;13.720;2023-02-03T05:20:23;98410.38;;;7.99;64.47
34983;BME280;21187;50.976;13.720;2023-02-03T05:25:25;98376.91;;;8.00;64.22
34983;BME280;21187;50.976;13.720;2023-02-03T05:30:27;98387.78;;;8.04;64.00
34983;BME280;21187;50.976;13.720;2023-02-03T05:35:32;98371.13;;;8.10;64.43
34983;BME280;21187;50.976;13.720;2023-02-03T05:40:34;98362.34;;;8.13;64.25
34983;BME280;21187;50.976;13.720;2023-02-03T05:45:59;98352.00;;;8.15;63.91
34983;BME280;21187;50.976;13.720;2023-02-03T05:51:02;98371.38;;;8.18;63.73
34983;BME280;21187;50.976;13.720;2023-02-03T05:56:04;98362.31;;;8.22;64.22
34983;BME280;21187;50.976;13.720;2023-02-03T06:01:06;98378.75;;;8.29;63.97
34983;BME280;21187;50.976;13.720;2023-02-03T06:06:08;98380.91;;;8.36;63.39
34983;BME280;21187;50.976;13.720;2023-02-03T06:11:10;98366.75;;;8.39;63.48
34983;BME280;21187;50.976;13.720;2023-02-03T06:16:12;98360.72;;;8.42;63.63
34983;BME280;21187;50.976;13.720;2023-02-03T06:21:15;98340.72;;;8.43;63.42
34983;BME280;21187;50.976;13.720;2023-02-03T06:26:17;98357.03;;;8.47;63.82
34983;BME280;21187;50.976;13.720;2023-02-03T06:31:19;98345.25;;;8.52;63.13
34983;BME280;21187;50.976;13.720;2023-02-03T06:36:22;98335.38;;;8.56;62.68
34983;BME280;21187;50.976;13.720;2023-02-03T06:41:24;98329.31;;;8.59;62.40
34983;BME280;21187;50.976;13.720;2023-02-03T06:46:31;98322.47;;;8.61;62.25
34983;BME280;21187;50.976;13.720;2023-02-03T06:51:35;98316.72;;;8.63;62.41
34983;BME280;21187;50.976;13.720;2023-02-03T06:56:37;98319.75;;;8.61;62.40
34983;BME280;21187;50.976;13.720;2023-02-03T07:01:39;98296.47;;;8.57;62.66
34983;BME280;21187;50.976;13.720;2023-02-03T07:06:41;98313.00;;;8.55;62.13
34983;BME280;21187;50.976;13.720;2023-02-03T07:11:43;98283.19;;;8.52;62.14
34983;BME280;21187;50.976;13.720;2023-02-03T07:16:45;98279.69;;;8.51;62.69
34983;BME280;21187;50.976;13.720;2023-02-03T07:21:47;98273.97;;;8.53;62.34
34983;BME280;21187;50.976;13.720;2023-02-03T07:26:49;98269.69;;;8.52;62.31
34983;BME280;21187;50.976;13.720;2023-02-03T07:31:51;98261.72;;;8.55;61.66
34983;BME280;21187;50.976;13.720;2023-02-03T07:36:53;98259.59;;;8.61;61.36
34983;BME280;21187;50.976;13.720;2023-02-03T07:41:55;98260.50;;;8.65;61.18
34983;BME280;21187;50.976;13.720;2023-02-03T07:46:57;98253.63;;;8.68;61.09
34983;BME280;21187;50.976;13.720;2023-02-03T07:51:59;98242.97;;;8.71;60.90
34983;BME280;21187;50.976;13.720;2023-02-03T07:57:01;98235.97;;;8.70;60.35
34983;BME280;21187;50.976;13.720;2023-02-03T08:02:03;98218.06;;;8.65;61.20
34983;BME280;21187;50.976;13.720;2023-02-03T08:07:06;98235.97;;;8.58;60.94
34983;BME280;21187;50.976;13.720;2023-02-03T08:12:08;98230.09;;;8.56;61.12
34983;BME280;21187;50.976;13.720;2023-02-03T08:17:10;98205.81;;;8.56;61.83
34983;BME280;21187;50.976;13.720;2023-02-03T08:22:12;98201.53;;;8.55;61.12
34983;BME280;21187;50.976;13.720;2023-02-03T08:27:18;98192.31;;;8.56;61.96
34983;BME280;21187;50.976;13.720;2023-02-03T08:32:21;98181.97;;;8.58;62.05
34983;BME280;21187;50.976;13.720;2023-02-03T08:37:25;98189.41;;;8.61;61.75
34983;BME280;21187;50.976;13.720;2023-02-03T08:42:27;98199.84;;;8.62;62.13
34983;BME280;21187;50.976;13.720;2023-02-03T08:47:29;98183.53;;;8.59;61.65
34983;BME280;21187;50.976;13.720;2023-02-03T08:52:31;98180.41;;;8.57;61.65
34983;BME280;21187;50.976;13.720;2023-02-03T08:57:34;98156.75;;;8.54;62.41
34983;BME280;21187;50.976;13.720;2023-02-03T09:02:36;98163.53;;;8.47;62.55
34983;BME280;21187;50.976;13.720;2023-02-03T09:07:38;98142.56;;;8.44;62.67
34983;BME280;21187;50.976;13.720;2023-02-03T09:12:40;98149.88;;;8.44;62.58
34983;BME280;21187;50.976;13.720;2023-02-03T09:17:42;98127.97;;;8.45;62.88
34983;BME280;21187;50.976;13.720;2023-02-03T09:22:44;98117.03;;;8.42;63.43
34983;BME280;21187;50.976;13.720;2023-02-03T09:27:46;98117.81;;;8.42;63.10
34983;BME280;21187;50.976;13.720;2023-02-03T09:32:52;98093.97;;;8.44;63.41
34983;BME280;21187;50.976;13.720;2023-02-03T09:37:54;98100.19;;;8.45;63.51
34983;BME280;21187;50.976;13.720;2023-02-03T09:48:16;98085.03;;;8.53;63.45
34983;BME280;21187;50.976;13.720;2023-02-03T09:53:29;98060.16;;;8.47;64.03
34983;BME280;21187;50.976;13.720;2023-02-03T09:58:34;98048.59;;;8.46;63.71
34983;BME280;21187;50.976;13.720;2023-02-03T10:09:08;98026.50;;;8.44;63.79
34983;BME280;21187;50.976;13.720;2023-02-03T10:30:28;97977.94;;;8.57;64.30
34983;BME280;21187;50.976;13.720;2023-02-03T10:35:45;97976.84;;;8.58;64.26
34983;BME280;21187;50.976;13.720;2023-02-03T10:40:49;97966.47;;;8.60;64.20
34983;BME280;21187;50.976;13.720;2023-02-03T10:45:51;97969.63;;;8.62;63.94
34983;BME280;21187;50.976;13.720;2023-02-03T10:50:54;97954.97;;;8.63;64.17
34983;BME280;21187;50.976;13.720;2023-02-03T10:56:04;97934.53;;;8.62;64.22
34983;BME280;21187;50.976;13.720;2023-02-03T11:01:12;97939.69;;;8.67;64.10
34983;BME280;21187;50.976;13.720;2023-02-03T11:06:16;97928.19;;;8.70;64.50
34983;BME280;21187;50.976;13.720;2023-02-03T11:11:27;97911.31;;;8.73;63.87
34983;BME280;21187;50.976;13.720;2023-02-03T11:16:33;97916.03;;;8.76;64.00
34983;BME280;21187;50.976;13.720;2023-02-03T11:21:45;97940.06;;;8.81;63.66
34983;BME280;21187;50.976;13.720;2023-02-03T11:26:57;97917.09;;;8.88;64.02
34983;BME280;21187;50.976;13.720;2023-02-03T11:32:15;97928.78;;;8.92;63.21
34983;BME280;21187;50.976;13.720;2023-02-03T11:37:48;97884.44;;;8.93;63.70
34983;BME280;21187;50.976;13.720;2023-02-03T11:48:00;97893.66;;;8.92;64.52
34983;BME280;21187;50.976;13.720;2023-02-03T11:58:27;97888.22;;;9.04;64.71
34983;BME280;21187;50.976;13.720;2023-02-03T12:30:33;97822.78;;;9.27;65.04
34983;BME280;21187;50.976;13.720;2023-02-03T12:35:44;97803.34;;;9.37;64.53
34983;BME280;21187;50.976;13.720;2023-02-03T12:40:54;97808.13;;;9.44;63.96
34983;BME280;21187;50.976;13.720;2023-02-03T12:46:02;97852.66;;;9.50;63.29
34983;BME280;21187;50.976;13.720;2023-02-03T12:51:10;97836.25;;;9.59;63.22
34983;BME280;21187;50.976;13.720;2023-02-03T12:56:19;97835.72;;;9.69;63.35
34983;BME280;21187;50.976;13.720;2023-02-03T13:01:36;97812.97;;;9.70;62.97
34983;BME280;21187;50.976;13.720;2023-02-03T13:06:59;97817.84;;;9.64;62.95
34983;BME280;21187;50.976;13.720;2023-02-03T13:17:25;97812.09;;;9.66;63.54
34983;BME280;21187;50.976;13.720;2023-02-03T13:22:28;97838.69;;;9.64;63.51
34983;BME280;21187;50.976;13.720;2023-02-03T13:27:41;97852.31;;;9.68;63.00
34983;BME280;21187;50.976;13.720;2023-02-03T13:33:02;97897.91;;;9.69;62.76
34983;BME280;21187;50.976;13.720;2023-02-03T13:43:38;97897.38;;;9.31;61.74
34983;BME280;21187;50.976;13.720;2023-02-03T13:48:43;97910.00;;;9.11;61.36
34983;BME280;21187;50.976;13.720;2023-02-03T13:53:47;97908.50;;;8.98;60.91
34983;BME280;21187;50.976;13.720;2023-02-03T13:59:05;97928.78;;;8.92;60.89
34983;BME280;21187;50.976;13.720;2023-02-03T14:24:54;97950.59;;;8.99;58.60
34983;BME280;21187;50.976;13.720;2023-02-03T14:35:14;97975.31;;;9.01;57.82
34983;BME280;21187;50.976;13.720;2023-02-03T15:07:03;97985.06;;;8.90;56.78
34983;BME280;21187;50.976;13.720;2023-02-03T15:12:25;97990.47;;;8.90;56.60
34983;BME280;21187;50.976;13.720;2023-02-03T15:17:27;98008.03;;;8.83;55.71
34983;BME280;21187;50.976;13.720;2023-02-03T15:22:36;98006.09;;;8.84;55.93
34983;BME280;21187;50.976;13.720;2023-02-03T15:27:38;98015.13;;;8.88;56.01
34983;BME280;21187;50.976;13.720;2023-02-03T15:32:45;98017.00;;;8.88;55.50
34983;BME280;21187;50.976;13.720;2023-02-03T15:37:54;98028.28;;;8.90;55.48
34983;BME280;21187;50.976;13.720;2023-02-03T15:48:04;98053.00;;;8.92;54.79
34983;BME280;21187;50.976;13.720;2023-02-03T15:53:44;98043.00;;;8.92;54.58
34983;BME280;21187;50.976;13.720;2023-02-03T15:58:48;98060.00;;;8.93;54.97
34983;BME280;21187;50.976;13.720;2023-02-03T16:03:52;98056.63;;;8.83;55.78
34983;BME280;21187;50.976;13.720;2023-02-03T16:08:55;98068.22;;;8.84;55.19
34983;BME280;21187;50.976;13.720;2023-02-03T16:14:00;98079.59;;;8.77;54.71
34983;BME280;21187;50.976;13.720;2023-02-03T16:19:11;98073.41;;;8.77;55.36
34983;BME280;21187;50.976;13.720;2023-02-03T16:29:35;98095.56;;;8.82;54.73
34983;BME280;21187;50.976;13.720;2023-02-03T16:34:56;98109.06;;;8.82;54.06
34983;BME280;21187;50.976;13.720;2023-02-03T16:40:19;98117.84;;;8.79;54.13
34983;BME280;21187;50.976;13.720;2023-02-03T16:45:40;98102.78;;;8.78;53.97
34983;BME280;21187;50.976;13.720;2023-02-03T16:51:02;98117.38;;;8.77;53.92
34983;BME280;21187;50.976;13.720;2023-02-03T16:56:05;98124.38;;;8.78;53.90
34983;BME280;21187;50.976;13.720;2023-02-03T17:01:07;98139.56;;;8.83;54.29
34983;BME280;21187;50.976;13.720;2023-02-03T17:06:12;98152.94;;;8.92;54.18
34983;BME280;21187;50.976;13.720;2023-02-03T17:11:19;98146.41;;;8.93;53.74
34983;BME280;21187;50.976;13.720;2023-02-03T17:16:24;98159.69;;;8.98;53.27
34983;BME280;21187;50.976;13.720;2023-02-03T17:21:28;98156.78;;;9.03;53.09
34983;BME280;21187;50.976;13.720;2023-02-03T17:26:30;98154.50;;;9.05;52.86
34983;BME280;21187;50.976;13.720;2023-02-03T17:31:32;98159.13;;;9.05;52.60
34983;BME280;21187;50.976;13.720;2023-02-03T17:36:34;98165.22;;;9.02;52.54
34983;BME280;21187;50.976;13.720;2023-02-03T17:41:35;98181.50;;;9.05;52.62
34983;BME280;21187;50.976;13.720;2023-02-03T17:46:55;98148.66;;;9.03;52.18
34983;BME280;21187;50.976;13.720;2023-02-03T17:52:14;98146.41;;;9.05;50.72
34983;BME280;21187;50.976;13.720;2023-02-03T17:57:36;98174.00;;;9.11;50.59
34983;BME280;21187;50.976;13.720;2023-02-03T18:02:38;98180.50;;;9.10;50.29
34983;BME280;21187;50.976;13.720;2023-02-03T18:07:40;98174.75;;;9.11;50.04
34983;BME280;21187;50.976;13.720;2023-02-03T18:12:42;98182.44;;;9.09;50.17
34983;BME280;21187;50.976;13.720;2023-02-03T18:17:44;98186.91;;;9.05;49.50
34983;BME280;21187;50.976;13.720;2023-02-03T18:22:46;98216.97;;;9.04;49.23
34983;BME280;21187;50.976;13.720;2023-02-03T18:27:49;98215.97;;;9.08;50.03
34983;BME280;21187;50.976;13.720;2023-02-03T18:32:51;98217.09;;;9.07;49.98
34983;BME280;21187;50.976;13.720;2023-02-03T18:37:53;98248.63;;;9.03;49.50
34983;BME280;21187;50.976;13.720;2023-02-03T18:42:55;98237.56;;;8.96;50.28
34983;BME280;21187;50.976;13.720;2023-02-03T18:47:57;98248.38;;;8.96;49.98
34983;BME280;21187;50.976;13.720;2023-02-03T18:52:59;98238.72;;;8.95;49.93
34983;BME280;21187;50.976;13.720;2023-02-03T18:58:01;98229.25;;;8.89;49.56
34983;BME280;21187;50.976;13.720;2023-02-03T19:03:03;98241.38;;;8.82;49.36
34983;BME280;21187;50.976;13.720;2023-02-03T19:08:05;98227.44;;;8.80;48.95
34983;BME280;21187;50.976;13.720;2023-02-03T19:13:07;98226.09;;;8.74;49.27
34983;BME280;21187;50.976;13.720;2023-02-03T19:18:09;98237.56;;;8.71;49.56
34983;BME280;21187;50.976;13.720;2023-02-03T19:23:11;98239.78;;;8.69;48.88
34983;BME280;21187;50.976;13.720;2023-02-03T19:28:13;98240.91;;;8.68;48.68
34983;BME280;21187;50.976;13.720;2023-02-03T19:33:29;98222.00;;;8.68;48.86
34983;BME280;21187;50.976;13.720;2023-02-03T19:38:30;98227.88;;;8.70;48.78
34983;BME280;21187;50.976;13.720;2023-02-03T19:43:33;98227.88;;;8.70;48.53
34983;BME280;21187;50.976;13.720;2023-02-03T19:48:35;98241.38;;;8.70;48.66
34983;BME280;21187;50.976;13.720;2023-02-03T19:53:37;98247.34;;;8.63;49.25
34983;BME280;21187;50.976;13.720;2023-02-03T19:58:39;98268.47;;;8.61;49.31
34983;BME280;21187;50.976;13.720;2023-02-03T20:03:40;98264.50;;;8.46;50.26
34983;BME280;21187;50.976;13.720;2023-02-03T20:08:44;98277.78;;;8.30;51.36
34983;BME280;21187;50.976;13.720;2023-02-03T20:13:47;98278.97;;;8.21;51.90
34983;BME280;21187;50.976;13.720;2023-02-03T20:18:49;98270.47;;;7.97;53.64
34983;BME280;21187;50.976;13.720;2023-02-03T20:23:50;98312.00;;;7.75;55.13
34983;BME280;21187;50.976;13.720;2023-02-03T20:28:54;98301.78;;;7.60;55.58
34983;BME280;21187;50.976;13.720;2023-02-03T20:33:56;98295.22;;;7.48;56.55
34983;BME280;21187;50.976;13.720;2023-02-03T20:38:57;98289.91;;;7.31;57.84
34983;BME280;21187;50.976;13.720;2023-02-03T20:43:59;98309.59;;;7.23;58.08
34983;BME280;21187;50.976;13.720;2023-02-03T20:49:02;98327.53;;;7.19;58.62
34983;BME280;21187;50.976;13.720;2023-02-03T20:54:13;98300.50;;;7.06;59.29
34983;BME280;21187;50.976;13.720;2023-02-03T20:59:17;98302.41;;;6.97;59.94
34983;BME280;21187;50.976;13.720;2023-02-03T21:04:19;98316.50;;;6.94;60.56
34983;BME280;21187;50.976;13.720;2023-02-03T21:09:40;98312.44;;;6.88;60.77
34983;BME280;21187;50.976;13.720;2023-02-03T21:14:44;98289.31;;;6.87;61.24
34983;BME280;21187;50.976;13.720;2023-02-03T21:19:50;98296.28;;;6.88;61.16
34983;BME280;21187;50.976;13.720;2023-02-03T21:24:57;98311.00;;;6.90;60.93
34983;BME280;21187;50.976;13.720;2023-02-03T21:30:04;98281.56;;;6.85;61.33
34983;BME280;21187;50.976;13.720;2023-02-03T21:35:33;98308.75;;;6.92;61.04
34983;BME280;21187;50.976;13.720;2023-02-03T21:40:35;98305.13;;;6.97;61.29
34983;BME280;21187;50.976;13.720;2023-02-03T21:45:41;98308.25;;;6.99;61.31
34983;BME280;21187;50.976;13.720;2023-02-03T21:50:43;98307.47;;;6.98;61.54
34983;BME280;21187;50.976;13.720;2023-02-03T21:55:45;98332.31;;;7.04;61.55
34983;BME280;21187;50.976;13.720;2023-02-03T22:00:47;98344.03;;;7.08;60.84
34983;BME280;21187;50.976;13.720;2023-02-03T22:05:51;98348.78;;;7.11;60.89
34983;BME280;21187;50.976;13.720;2023-02-03T22:10:56;98362.72;;;7.13;61.14
34983;BME280;21187;50.976;13.720;2023-02-03T22:15:58;98373.47;;;7.13;61.24
34983;BME280;21187;50.976;13.720;2023-02-03T22:21:00;98377.44;;;7.07;61.15
34983;BME280;21187;50.976;13.720;2023-02-03T22:26:03;98375.41;;;7.04;61.53
34983;BME280;21187;50.976;13.720;2023-02-03T22:31:07;98377.66;;;7.02;61.55
34983;BME280;21187;50.976;13.720;2023-02-03T22:36:10;98394.41;;;6.99;61.95
34983;BME280;21187;50.976;13.720;2023-02-03T22:41:12;98418.19;;;6.97;61.78
34983;BME280;21187;50.976;13.720;2023-02-03T22:46:14;98398.88;;;6.95;61.96
34983;BME280;21187;50.976;13.720;2023-02-03T22:51:15;98424.84;;;6.91;62.31
34983;BME280;21187;50.976;13.720;2023-02-03T22:56:17;98400.00;;;6.85;62.34
34983;BME280;21187;50.976;13.720;2023-02-03T23:01:19;98397.78;;;6.87;62.15
34983;BME280;21187;50.976;13.720;2023-02-03T23:06:21;98408.53;;;6.87;62.37
34983;BME280;21187;50.976;13.720;2023-02-03T23:11:23;98420.72;;;6.85;62.95
34983;BME280;21187;50.976;13.720;2023-02-03T23:16:25;98407.91;;;6.81;63.00
34983;BME280;21187;50.976;13.720;2023-02-03T23:21:26;98410.94;;;6.80;63.39
34983;BME280;21187;50.976;13.720;2023-02-03T23:26:28;98410.13;;;6.79;63.33
34983;BME280;21187;50.976;13.720;2023-02-03T23:31:30;98430.56;;;6.80;63.21
34983;BME280;21187;50.976;13.720;2023-02-03T23:36:32;98434.84;;;6.81;63.16
34983;BME280;21187;50.976;13.720;2023-02-03T23:41:34;98426.75;;;6.81;63.11
34983;BME280;21187;50.976;13.720;2023-02-03T23:46:36;98430.88;;;6.88;63.39
34983;BME280;21187;50.976;13.720;2023-02-03T23:51:38;98437.81;;;6.89;63.02
34983;BME280;21187;50.976;13.720;2023-02-03T23:56:40;98442.59;;;6.92;63.16
